createdAt,value
2023-04-06T00:01:02.594Z,65.55
2023-04-06T00:03:29.568Z,65.81
2023-04-06T00:05:56.553Z,65.93
2023-04-06T00:08:24.044Z,65.84
2023-04-06T00:10:51.319Z,65.53
2023-04-06T00:13:18.370Z,65.46
2023-04-06T00:15:45.509Z,65.63
2023-04-06T00:18:12.484Z,65.80
2023-04-06T00:20:39.590Z,65.81
2023-04-06T00:23:06.676Z,65.95
2023-04-06T00:25:33.596Z,65.70
2023-04-06T00:28:00.659Z,65.75
2023-04-06T00:30:27.708Z,66.04
2023-04-06T00:32:54.761Z,65.96
2023-04-06T00:35:21.799Z,65.61
2023-04-06T00:37:48.858Z,65.20
2023-04-06T00:40:16.509Z,65.39
2023-04-06T00:42:43.562Z,65.47
2023-04-06T00:45:11.479Z,65.44
2023-04-06T00:47:40.135Z,65.69
2023-04-06T00:50:07.490Z,65.76
2023-04-06T00:52:36.103Z,65.73
2023-04-06T00:55:04.605Z,65.79
2023-04-06T00:57:32.038Z,65.91
2023-04-06T00:59:59.204Z,66.18
2023-04-06T01:02:26.584Z,66.14
2023-04-06T01:04:55.309Z,66.14
2023-04-06T01:07:26.897Z,66.07
2023-04-06T01:10:05.317Z,66.02
2023-04-06T01:12:32.857Z,66.03
2023-04-06T01:15:01.786Z,65.86
2023-04-06T01:17:30.133Z,65.72
2023-04-06T01:19:58.845Z,65.31
2023-04-06T01:22:29.170Z,65.54
2023-04-06T01:25:02.421Z,65.65
2023-04-06T01:27:35.035Z,64.92
2023-04-06T01:30:02.970Z,64.91
2023-04-06T01:32:43.901Z,64.90
2023-04-06T01:35:12.485Z,65.22
2023-04-06T01:37:45.186Z,65.15
2023-04-06T01:40:14.389Z,65.02
2023-04-06T01:42:45.078Z,64.72
2023-04-06T01:45:13.666Z,64.64
2023-04-06T01:47:40.979Z,65.11
2023-04-06T01:50:08.673Z,65.15
2023-04-06T01:52:38.667Z,65.15
2023-04-06T01:55:06.004Z,65.27
2023-04-06T01:57:46.555Z,64.77
2023-04-06T02:00:27.229Z,64.83
2023-04-06T02:02:54.961Z,65.06
2023-04-06T02:05:26.295Z,64.53
2023-04-06T02:07:53.881Z,64.82
2023-04-06T02:10:27.832Z,64.57
2023-04-06T02:12:55.305Z,64.67
2023-04-06T02:15:25.752Z,64.61
2023-04-06T02:17:53.477Z,64.76
2023-04-06T02:20:20.966Z,64.76
2023-04-06T02:22:47.980Z,64.89
2023-04-06T02:25:14.860Z,64.96
2023-04-06T02:27:41.848Z,64.80
2023-04-06T02:30:09.408Z,64.76
2023-04-06T02:32:36.732Z,64.53
2023-04-06T02:35:05.083Z,64.77
2023-04-06T02:37:33.207Z,64.90
2023-04-06T02:40:00.380Z,64.86
2023-04-06T02:42:28.036Z,64.94
2023-04-06T02:44:55.149Z,64.73
2023-04-06T02:47:23.349Z,64.74
2023-04-06T02:49:51.071Z,64.63
2023-04-06T02:52:18.433Z,64.70
2023-04-06T02:54:45.578Z,64.91
2023-04-06T02:57:12.744Z,64.78
2023-04-06T02:59:43.103Z,65.07
2023-04-06T03:02:23.604Z,65.09
2023-04-06T03:04:51.033Z,65.04
2023-04-06T03:07:22.903Z,64.71
2023-04-06T03:09:50.188Z,64.84
2023-04-06T03:12:18.289Z,64.90
2023-04-06T03:15:08.967Z,65.07
2023-04-06T03:17:36.733Z,65.23
2023-04-06T03:20:09.397Z,65.38
2023-04-06T03:22:43.978Z,65.43
2023-04-06T03:25:13.141Z,65.43
2023-04-06T03:27:41.027Z,65.45
2023-04-06T03:30:08.489Z,65.37
2023-04-06T03:32:35.583Z,65.39
2023-04-06T03:35:02.622Z,65.43
2023-04-06T03:37:31.759Z,65.51
2023-04-06T03:40:01.574Z,65.50
2023-04-06T03:42:29.351Z,65.60
2023-04-06T03:45:03.659Z,65.84
2023-04-06T03:47:30.762Z,66.24
2023-04-06T03:50:01.244Z,66.49
2023-04-06T03:52:29.705Z,66.56
2023-04-06T03:54:56.847Z,66.65
2023-04-06T03:57:24.775Z,66.54
2023-04-06T03:59:51.610Z,66.49
2023-04-06T04:02:18.580Z,66.57
2023-04-06T04:04:45.883Z,66.67
2023-04-06T04:07:12.802Z,66.59
2023-04-06T04:09:39.855Z,66.96
2023-04-06T04:12:06.952Z,67.09
2023-04-06T04:14:33.817Z,67.43
2023-04-06T04:17:01.934Z,68.03
2023-04-06T04:19:28.766Z,68.38
2023-04-06T04:21:58.848Z,69.26
2023-04-06T04:24:32.069Z,69.73
2023-04-06T04:27:01.209Z,70.25
2023-04-06T04:29:28.726Z,70.48
2023-04-06T04:31:59.431Z,70.88
2023-04-06T04:34:31.942Z,71.15
2023-04-06T04:36:59.107Z,71.38
2023-04-06T04:39:47.675Z,72.61
2023-04-06T04:42:15.131Z,73.18
2023-04-06T04:44:46.345Z,73.86
2023-04-06T04:47:14.227Z,74.44
2023-04-06T04:49:44.671Z,74.76
2023-04-06T04:52:12.492Z,75.42
2023-04-06T04:54:58.802Z,75.80
2023-04-06T04:57:28.162Z,75.92
2023-04-06T04:59:57.965Z,76.37
2023-04-06T05:02:25.233Z,76.48
2023-04-06T05:05:05.095Z,76.90
2023-04-06T05:07:40.481Z,77.54
2023-04-06T05:10:10.353Z,78.02
2023-04-06T05:12:43.483Z,78.32
2023-04-06T05:15:14.399Z,79.03
2023-04-06T05:17:41.652Z,79.22
2023-04-06T05:20:09.384Z,79.21
2023-04-06T05:22:42.425Z,79.57
2023-04-06T05:25:19.888Z,80.00
2023-04-06T05:27:50.887Z,80.44
2023-04-06T05:30:30.593Z,80.73
2023-04-06T05:32:59.196Z,80.97
2023-04-06T05:35:37.318Z,81.09
2023-04-06T05:38:10.683Z,81.07
2023-04-06T05:40:38.782Z,81.67
2023-04-06T05:43:08.023Z,82.33
2023-04-06T05:45:35.584Z,82.59
2023-04-06T05:48:05.593Z,83.08
2023-04-06T05:50:32.965Z,83.48
2023-04-06T05:53:01.806Z,84.14
2023-04-06T05:55:32.964Z,84.45
2023-04-06T05:58:13.000Z,84.81
2023-04-06T06:00:40.241Z,85.41
2023-04-06T06:03:09.090Z,85.75
2023-04-06T06:05:37.020Z,85.98
2023-04-06T06:08:09.026Z,85.89
2023-04-06T06:10:40.830Z,86.24
2023-04-06T06:13:09.426Z,86.54
2023-04-06T06:15:37.971Z,86.68
2023-04-06T06:18:06.564Z,86.69
2023-04-06T06:20:35.146Z,86.97
2023-04-06T06:23:07.634Z,87.18
2023-04-06T06:25:47.060Z,87.64
2023-04-06T06:28:14.437Z,87.69
2023-04-06T06:30:42.411Z,87.63
2023-04-06T06:33:12.482Z,87.81
2023-04-06T06:35:48.498Z,87.93
2023-04-06T06:38:16.469Z,88.18
2023-04-06T06:40:46.710Z,88.71
2023-04-06T06:43:15.471Z,88.83
2023-04-06T06:45:52.268Z,88.88
2023-04-06T06:48:20.988Z,88.90
2023-04-06T06:50:49.416Z,88.73
2023-04-06T06:53:17.595Z,88.21
2023-04-06T06:55:44.934Z,88.15
2023-04-06T06:58:13.594Z,88.08
2023-04-06T07:00:40.709Z,87.57
2023-04-06T07:03:08.205Z,87.14
2023-04-06T07:05:36.255Z,86.68
2023-04-06T07:08:04.881Z,86.19
2023-04-06T07:10:33.503Z,86.54
2023-04-06T07:13:03.086Z,85.91
2023-04-06T07:15:30.682Z,85.97
2023-04-06T07:17:57.819Z,85.82
2023-04-06T07:20:25.847Z,85.06
2023-04-06T07:22:54.403Z,84.88
2023-04-06T07:25:23.194Z,85.12
2023-04-06T07:27:52.501Z,84.17
2023-04-06T07:30:20.796Z,84.08
2023-04-06T07:32:48.578Z,84.99
2023-04-06T07:35:15.915Z,85.39
2023-04-06T07:37:43.073Z,84.84
2023-04-06T07:40:10.626Z,83.87
2023-04-06T07:42:38.086Z,84.22
2023-04-06T07:45:09.417Z,84.47
2023-04-06T07:47:36.403Z,84.79
2023-04-06T07:50:04.791Z,84.59
2023-04-06T07:52:36.953Z,84.60
2023-04-06T07:55:05.647Z,84.16
2023-04-06T07:57:32.573Z,83.98
2023-04-06T07:59:59.592Z,83.96
2023-04-06T08:02:26.509Z,83.76
2023-04-06T08:04:53.859Z,83.90
2023-04-06T08:07:21.093Z,83.93
2023-04-06T08:09:47.990Z,83.92
2023-04-06T08:12:15.436Z,84.05
2023-04-06T08:14:42.364Z,84.12
2023-04-06T08:17:09.471Z,84.30
2023-04-06T08:19:36.358Z,84.69
2023-04-06T08:22:03.150Z,84.58
2023-04-06T08:24:31.307Z,84.46
2023-04-06T08:26:58.413Z,84.96
2023-04-06T08:29:25.269Z,84.72
2023-04-06T08:31:52.327Z,84.50
2023-04-06T08:34:19.134Z,84.44
2023-04-06T08:36:46.457Z,84.30
2023-04-06T08:39:13.446Z,84.38
2023-04-06T08:41:43.578Z,84.30
2023-04-06T08:44:11.988Z,83.95
2023-04-06T08:46:39.137Z,84.37
2023-04-06T08:49:07.283Z,84.62
2023-04-06T08:51:38.497Z,84.54
2023-04-06T08:54:05.579Z,84.20
2023-04-06T08:56:32.766Z,83.61
2023-04-06T08:59:00.115Z,82.98
2023-04-06T09:01:28.378Z,83.79
2023-04-06T09:04:01.034Z,84.19
2023-04-06T09:06:28.120Z,84.09
2023-04-06T09:08:55.595Z,83.22
2023-04-06T09:11:22.932Z,83.64
2023-04-06T09:13:55.608Z,83.61
2023-04-06T09:16:23.575Z,84.08
2023-04-06T09:18:50.608Z,84.09
2023-04-06T09:21:19.218Z,84.27
2023-04-06T09:23:46.498Z,83.97
2023-04-06T09:26:18.412Z,83.96
2023-04-06T09:28:51.057Z,84.03
2023-04-06T09:31:22.749Z,84.39
2023-04-06T09:33:50.665Z,84.37
2023-04-06T09:36:17.748Z,83.85
2023-04-06T09:38:56.257Z,83.85
2023-04-06T09:41:28.369Z,84.33
2023-04-06T09:44:12.508Z,84.91
2023-04-06T09:46:57.654Z,84.57
2023-04-06T09:49:28.583Z,85.46
2023-04-06T09:52:14.867Z,85.46
2023-04-06T09:54:43.623Z,85.66
2023-04-06T09:57:32.678Z,86.01
2023-04-06T10:00:19.706Z,86.01
2023-04-06T10:03:05.652Z,86.17
2023-04-06T10:05:51.403Z,85.98
2023-04-06T10:08:20.100Z,85.25
2023-04-06T10:10:47.869Z,85.33
2023-04-06T10:13:15.832Z,85.87
2023-04-06T10:15:43.635Z,86.05
2023-04-06T10:18:11.204Z,85.86
2023-04-06T10:20:50.114Z,84.54
2023-04-06T10:23:24.788Z,82.52
2023-04-06T10:25:59.681Z,82.32
2023-04-06T10:28:34.634Z,81.34
2023-04-06T10:31:04.914Z,81.22
2023-04-06T10:33:32.688Z,81.12
2023-04-06T10:36:11.320Z,79.78
2023-04-06T10:38:41.433Z,79.13
2023-04-06T10:41:10.941Z,79.42
2023-04-06T10:43:40.553Z,79.37
2023-04-06T10:46:08.982Z,79.81
2023-04-06T10:48:44.038Z,80.08
2023-04-06T10:51:14.291Z,78.77
2023-04-06T10:53:49.381Z,78.27
2023-04-06T10:56:21.542Z,76.72
2023-04-06T10:58:51.532Z,76.82
2023-04-06T11:01:21.272Z,76.97
2023-04-06T11:03:58.893Z,77.12
2023-04-06T11:06:29.413Z,77.51
2023-04-06T11:08:56.585Z,77.03
2023-04-06T11:11:26.885Z,76.17
2023-04-06T11:13:57.205Z,76.48
2023-04-06T11:16:29.696Z,76.97
2023-04-06T11:19:01.936Z,77.34
2023-04-06T11:21:35.335Z,78.06
2023-04-06T11:24:09.401Z,77.81
2023-04-06T11:26:55.712Z,76.29
2023-04-06T11:29:30.926Z,76.69
2023-04-06T11:32:06.718Z,76.53
2023-04-06T11:34:37.374Z,76.30
2023-04-06T11:37:12.559Z,76.49
2023-04-06T11:39:54.831Z,76.51
2023-04-06T11:42:24.200Z,76.17
2023-04-06T11:44:56.763Z,77.89
2023-04-06T11:47:35.205Z,77.02
2023-04-06T11:50:10.855Z,76.28
2023-04-06T11:52:40.049Z,75.46
2023-04-06T11:55:19.155Z,76.33
2023-04-06T11:57:46.153Z,77.79
2023-04-06T12:00:13.633Z,78.34
2023-04-06T12:02:46.292Z,77.93
2023-04-06T12:05:13.411Z,77.65
2023-04-06T12:10:12.873Z,78.61
2023-04-06T12:12:39.950Z,79.04
2023-04-06T12:15:07.839Z,79.91
2023-04-06T12:17:35.523Z,79.17
2023-04-06T12:20:09.483Z,79.14
2023-04-06T12:22:44.825Z,77.93
2023-04-06T12:25:12.404Z,77.53
2023-04-06T12:27:39.338Z,76.86
2023-04-06T12:30:07.407Z,76.69
2023-04-06T12:32:34.363Z,76.78
2023-04-06T12:35:01.476Z,77.51
2023-04-06T12:37:28.544Z,78.46
2023-04-06T12:39:55.622Z,78.15
2023-04-06T12:42:23.054Z,78.27
2023-04-06T12:44:50.316Z,78.77
2023-04-06T12:47:18.725Z,80.17
2023-04-06T12:49:45.908Z,80.14
2023-04-06T12:52:13.394Z,80.58
2023-04-06T12:54:40.408Z,80.50
2023-04-06T12:57:07.584Z,80.17
2023-04-06T12:59:36.352Z,80.30
2023-04-06T13:02:04.530Z,80.13
2023-04-06T13:04:31.712Z,79.20
2023-04-06T13:07:01.779Z,79.99
2023-04-06T13:09:29.991Z,79.92
2023-04-06T13:11:58.226Z,79.32
2023-04-06T13:14:25.510Z,79.50
2023-04-06T13:16:55.006Z,79.66
2023-04-06T13:19:23.077Z,79.46
2023-04-06T13:21:53.998Z,79.49
2023-04-06T13:24:22.164Z,79.10
2023-04-06T13:26:49.615Z,79.02
2023-04-06T13:29:16.612Z,80.46
2023-04-06T13:31:44.025Z,80.01
2023-04-06T13:34:11.782Z,80.04
2023-04-06T13:36:41.886Z,79.85
2023-04-06T13:39:09.810Z,79.88
2023-04-06T13:41:40.689Z,80.16
2023-04-06T13:44:07.809Z,79.59
2023-04-06T13:46:35.130Z,79.10
2023-04-06T13:49:02.102Z,78.31
2023-04-06T13:51:29.312Z,78.14
2023-04-06T13:53:56.589Z,78.69
2023-04-06T13:56:23.787Z,79.09
2023-04-06T13:58:55.549Z,79.37
2023-04-06T14:01:23.521Z,78.91
2023-04-06T14:03:50.893Z,79.55
2023-04-06T14:08:48.612Z,79.99
2023-04-06T14:11:16.716Z,79.62
2023-04-06T14:13:43.934Z,79.95
2023-04-06T14:16:11.411Z,79.93
2023-04-06T14:18:38.661Z,79.67
2023-04-06T14:21:05.957Z,80.35
2023-04-06T14:23:33.715Z,80.89
2023-04-06T14:26:13.516Z,80.32
2023-04-06T14:28:42.129Z,79.90
2023-04-06T14:31:16.745Z,80.04
2023-04-06T14:33:44.221Z,79.87
2023-04-06T14:36:13.364Z,79.68
2023-04-06T14:40:43.017Z,79.60
2023-04-06T14:45:45.906Z,80.99
2023-04-06T14:52:50.244Z,80.81
2023-04-06T14:55:17.590Z,81.32
2023-04-06T14:57:44.716Z,81.38
2023-04-06T16:01:26.142Z,78.53
2023-04-06T16:03:53.180Z,78.55
2023-04-06T16:06:20.043Z,78.43
2023-04-06T16:08:47.089Z,78.34
2023-04-06T16:11:14.063Z,78.48
2023-04-06T16:13:45.017Z,77.73
2023-04-06T16:16:16.663Z,77.81
2023-04-06T16:18:43.516Z,78.34
2023-04-06T16:21:18.170Z,78.38
2023-04-06T16:23:47.199Z,78.30
2023-04-06T16:26:17.400Z,78.55
2023-04-06T16:28:45.192Z,78.82
2023-04-06T16:31:23.099Z,78.85
2023-04-06T16:33:51.907Z,79.10
2023-04-06T16:36:27.254Z,79.15
2023-04-06T16:38:58.501Z,79.14
2023-04-06T16:41:28.383Z,79.33
2023-04-06T16:43:56.660Z,79.42
2023-04-06T16:46:35.143Z,79.76
2023-04-06T16:49:05.295Z,79.92
2023-04-06T16:51:32.311Z,80.10
2023-04-06T16:53:59.232Z,80.13
2023-04-06T16:56:26.047Z,80.17
2023-04-06T16:58:52.823Z,80.34
2023-04-06T17:01:20.257Z,80.51
2023-04-06T17:03:47.615Z,80.66
2023-04-06T17:06:15.164Z,80.94
2023-04-06T17:08:45.138Z,80.96
2023-04-06T17:11:15.352Z,81.04
2023-04-06T17:13:43.758Z,81.05
2023-04-06T17:16:11.731Z,81.22
2023-04-06T17:18:38.581Z,81.37
2023-04-06T17:21:10.740Z,81.37
2023-04-06T17:23:37.559Z,81.81
2023-04-06T17:26:05.837Z,82.03
2023-04-06T22:05:41.398Z,85.19
